LGL9562 EDDR-ELLX
Flight info
| Callsign | LGL9562 |
|---|---|
| Flight time | 0h 20m |
| Altitude | 10000 |
| Route | TOMPI2M TOMPI Q760 MAPIG Q763 EXCOS |
| Aircraft | DH8D/M-SDE2E3FGRY/H |
Departure
| Time | 2026-04-27 13:22 |
|---|---|
| Airport | Saarbrücken Airport (EDDR) |
Arrival
| Time | 2026-04-27 13:42 |
|---|---|
| Airport | Luxembourg-Findel International Airport (ELLX) |
| Time | Latitude | Longitude | Altitude | Speed | Heading |
|---|---|---|---|---|---|
| 2026-04-27 12:56 | 49.21866 | 7.11406 | 1067 ft | 0 kts | 345° |
| 2026-04-27 13:18 | 49.21869 | 7.11405 | 1066 ft | 0 kts | 345° |
| 2026-04-27 13:18 | 49.21896 | 7.11369 | 1066 ft | 9 kts | 277° |
| 2026-04-27 13:18 | 49.21869 | 7.11253 | 1065 ft | 12 kts | 249° |
| 2026-04-27 13:18 | 49.21819 | 7.11179 | 1065 ft | 10 kts | 171° |
| 2026-04-27 13:19 | 49.21753 | 7.11168 | 1064 ft | 9 kts | 197° |
| 2026-04-27 13:19 | 49.21684 | 7.11134 | 1063 ft | 13 kts | 197° |
| 2026-04-27 13:19 | 49.21610 | 7.11036 | 1062 ft | 17 kts | 265° |
| 2026-04-27 13:19 | 49.21603 | 7.10819 | 1058 ft | 22 kts | 266° |
| 2026-04-27 13:20 | 49.21594 | 7.10555 | 1053 ft | 26 kts | 267° |
| 2026-04-27 13:20 | 49.21584 | 7.10246 | 1044 ft | 28 kts | 266° |
| 2026-04-27 13:20 | 49.21553 | 7.09977 | 1033 ft | 25 kts | 245° |
| 2026-04-27 13:20 | 49.21486 | 7.09765 | 1024 ft | 24 kts | 244° |
| 2026-04-27 13:21 | 49.21417 | 7.09705 | 1020 ft | 10 kts | 96° |
| 2026-04-27 13:21 | 49.21424 | 7.09889 | 1028 ft | 38 kts | 86° |
| 2026-04-27 13:21 | 49.21449 | 7.10754 | 1057 ft | 120 kts | 87° |
| 2026-04-27 13:21 | 49.21484 | 7.12254 | 1294 ft | 149 kts | 88° |
| 2026-04-27 13:22 | 49.21514 | 7.13880 | 1920 ft | 158 kts | 88° |
| 2026-04-27 13:22 | 49.21547 | 7.15525 | 2688 ft | 158 kts | 88° |
| 2026-04-27 13:22 | 49.21584 | 7.17224 | 3305 ft | 165 kts | 86° |
| 2026-04-27 13:22 | 49.21635 | 7.18952 | 3930 ft | 164 kts | 86° |
| 2026-04-27 13:23 | 49.21688 | 7.20708 | 4489 ft | 167 kts | 86° |
| 2026-04-27 13:23 | 49.21862 | 7.22426 | 5020 ft | 168 kts | 62° |
| 2026-04-27 13:23 | 49.22746 | 7.23490 | 5446 ft | 170 kts | 13° |
| 2026-04-27 13:23 | 49.23929 | 7.23745 | 5983 ft | 175 kts | 6° |
| 2026-04-27 13:24 | 49.25243 | 7.23961 | 6086 ft | 206 kts | 5° |
| 2026-04-27 13:24 | 49.26781 | 7.24191 | 6227 ft | 231 kts | 5° |
| 2026-04-27 13:24 | 49.28392 | 7.24417 | 6713 ft | 238 kts | 4° |
| 2026-04-27 13:24 | 49.30056 | 7.24380 | 7244 ft | 240 kts | 345° |
| 2026-04-27 13:25 | 49.31418 | 7.23003 | 7746 ft | 241 kts | 310° |
| 2026-04-27 13:25 | 49.32403 | 7.20934 | 8341 ft | 242 kts | 304° |
| 2026-04-27 13:25 | 49.33363 | 7.18822 | 8903 ft | 243 kts | 304° |
| 2026-04-27 13:25 | 49.34320 | 7.16702 | 9477 ft | 245 kts | 304° |
| 2026-04-27 13:26 | 49.35296 | 7.14537 | 9948 ft | 251 kts | 304° |
| 2026-04-27 13:26 | 49.36289 | 7.12327 | 10093 ft | 257 kts | 304° |
| 2026-04-27 13:26 | 49.37321 | 7.10025 | 10147 ft | 266 kts | 304° |
| 2026-04-27 13:26 | 49.38402 | 7.07634 | 10161 ft | 274 kts | 306° |
| 2026-04-27 13:27 | 49.39830 | 7.05695 | 10152 ft | 283 kts | 333° |
| 2026-04-27 13:27 | 49.41731 | 7.04859 | 10179 ft | 288 kts | 347° |
| 2026-04-27 13:27 | 49.43671 | 7.03999 | 10155 ft | 293 kts | 333° |
| 2026-04-27 13:27 | 49.45139 | 7.01928 | 10166 ft | 293 kts | 302° |
| 2026-04-27 13:28 | 49.45945 | 6.99020 | 10175 ft | 295 kts | 289° |
| 2026-04-27 13:28 | 49.46611 | 6.96024 | 10164 ft | 297 kts | 288° |
| 2026-04-27 13:28 | 49.47269 | 6.93006 | 10158 ft | 297 kts | 288° |
| 2026-04-27 13:28 | 49.47923 | 6.90006 | 10158 ft | 298 kts | 289° |
| 2026-04-27 13:29 | 49.48619 | 6.86998 | 10158 ft | 298 kts | 290° |
| 2026-04-27 13:29 | 49.49324 | 6.84019 | 10157 ft | 298 kts | 290° |
| 2026-04-27 13:29 | 49.50036 | 6.81009 | 10154 ft | 298 kts | 290° |
| 2026-04-27 13:29 | 49.50737 | 6.78047 | 10153 ft | 298 kts | 290° |
| 2026-04-27 13:30 | 49.51455 | 6.75015 | 10159 ft | 298 kts | 290° |
| 2026-04-27 13:30 | 49.52155 | 6.72055 | 10156 ft | 298 kts | 290° |
| 2026-04-27 13:30 | 49.52862 | 6.69071 | 10154 ft | 298 kts | 290° |
| 2026-04-27 13:30 | 49.53581 | 6.66043 | 10153 ft | 298 kts | 290° |
| 2026-04-27 13:31 | 49.54286 | 6.63075 | 10158 ft | 298 kts | 290° |
| 2026-04-27 13:31 | 49.54993 | 6.60102 | 10150 ft | 289 kts | 290° |
| 2026-04-27 13:31 | 49.55659 | 6.57293 | 10092 ft | 275 kts | 290° |
| 2026-04-27 13:31 | 49.56282 | 6.54542 | 9901 ft | 269 kts | 285° |
| 2026-04-27 13:32 | 49.56538 | 6.51724 | 9653 ft | 266 kts | 275° |
| 2026-04-27 13:32 | 49.56656 | 6.48875 | 9405 ft | 263 kts | 274° |
| 2026-04-27 13:32 | 49.56768 | 6.46071 | 9103 ft | 264 kts | 274° |
| 2026-04-27 13:32 | 49.56878 | 6.43268 | 8714 ft | 267 kts | 274° |
| 2026-04-27 13:33 | 49.56916 | 6.40393 | 8314 ft | 270 kts | 265° |
| 2026-04-27 13:33 | 49.56343 | 6.37651 | 7926 ft | 271 kts | 246° |
| 2026-04-27 13:33 | 49.55503 | 6.35089 | 7521 ft | 263 kts | 244° |
| 2026-04-27 13:33 | 49.54693 | 6.32658 | 7112 ft | 255 kts | 243° |
| 2026-04-27 13:34 | 49.53887 | 6.30250 | 6711 ft | 248 kts | 243° |
| 2026-04-27 13:34 | 49.53118 | 6.27949 | 6313 ft | 242 kts | 243° |
| 2026-04-27 13:34 | 49.52356 | 6.25667 | 5910 ft | 237 kts | 243° |
| 2026-04-27 13:34 | 49.51613 | 6.23439 | 5508 ft | 232 kts | 243° |
| 2026-04-27 13:35 | 49.51096 | 6.21881 | 5246 ft | 231 kts | 243° |
| 2026-04-27 13:35 | 49.50373 | 6.19691 | 4899 ft | 229 kts | 243° |
| 2026-04-27 13:35 | 49.49652 | 6.17511 | 4579 ft | 223 kts | 243° |
| 2026-04-27 13:35 | 49.48960 | 6.15403 | 4270 ft | 217 kts | 246° |
| 2026-04-27 13:36 | 49.48690 | 6.13211 | 4070 ft | 209 kts | 272° |
| 2026-04-27 13:36 | 49.48751 | 6.10992 | 3996 ft | 207 kts | 274° |
| 2026-04-27 13:36 | 49.48811 | 6.08764 | 3963 ft | 207 kts | 274° |
| 2026-04-27 13:36 | 49.48871 | 6.06555 | 3950 ft | 207 kts | 274° |
| 2026-04-27 13:37 | 49.48933 | 6.04342 | 3946 ft | 206 kts | 274° |
| 2026-04-27 13:37 | 49.48995 | 6.02130 | 3939 ft | 205 kts | 274° |
| 2026-04-27 13:37 | 49.49164 | 5.99976 | 3925 ft | 202 kts | 292° |
| 2026-04-27 13:37 | 49.49989 | 5.98317 | 3874 ft | 196 kts | 329° |
| 2026-04-27 13:38 | 49.51281 | 5.97743 | 3685 ft | 199 kts | 4° |
| 2026-04-27 13:38 | 49.52585 | 5.98433 | 3482 ft | 201 kts | 32° |
| 2026-04-27 13:38 | 49.53760 | 5.99612 | 3271 ft | 198 kts | 33° |
| 2026-04-27 13:38 | 49.54865 | 6.00772 | 3052 ft | 184 kts | 45° |
| 2026-04-27 13:39 | 49.55481 | 6.02411 | 3015 ft | 175 kts | 63° |
| 2026-04-27 13:39 | 49.56213 | 6.03863 | 3011 ft | 171 kts | 47° |
| 2026-04-27 13:39 | 49.56848 | 6.05422 | 2968 ft | 170 kts | 67° |
| 2026-04-27 13:39 | 49.57358 | 6.07051 | 2859 ft | 171 kts | 59° |
| 2026-04-27 13:40 | 49.57964 | 6.08590 | 2652 ft | 164 kts | 59° |
| 2026-04-27 13:40 | 49.58510 | 6.10074 | 2444 ft | 153 kts | 60° |
| 2026-04-27 13:40 | 49.59018 | 6.11429 | 2203 ft | 139 kts | 60° |
| 2026-04-27 13:40 | 49.59484 | 6.12692 | 2031 ft | 131 kts | 62° |
| 2026-04-27 13:41 | 49.59909 | 6.13901 | 1884 ft | 128 kts | 61° |
| 2026-04-27 13:41 | 49.60348 | 6.15058 | 1718 ft | 125 kts | 59° |
| 2026-04-27 13:41 | 49.60796 | 6.16213 | 1569 ft | 127 kts | 60° |
| 2026-04-27 13:41 | 49.61246 | 6.17410 | 1350 ft | 130 kts | 62° |
| 2026-04-27 13:42 | 49.61688 | 6.18588 | 1216 ft | 127 kts | 61° |
| 2026-04-27 13:42 | 49.62106 | 6.19713 | 1198 ft | 99 kts | 58° |
| 2026-04-27 13:42 | 49.62357 | 6.20380 | 1224 ft | 53 kts | 60° |
| 2026-04-27 13:42 | 49.62519 | 6.20815 | 1233 ft | 39 kts | 60° |
| 2026-04-27 13:43 | 49.62664 | 6.21096 | 1234 ft | 28 kts | 36° |
| 2026-04-27 13:43 | 49.62809 | 6.21241 | 1233 ft | 21 kts | 30° |
| 2026-04-27 13:43 | 49.62925 | 6.21331 | 1232 ft | 16 kts | 11° |
| 2026-04-27 13:43 | 49.63012 | 6.21407 | 1232 ft | 10 kts | 23° |
| 2026-04-27 13:44 | 49.63064 | 6.21379 | 1232 ft | 5 kts | 330° |
| 2026-04-27 13:44 | 49.63095 | 6.21353 | 1232 ft | 6 kts | 331° |
| 2026-04-27 13:44 | 49.63146 | 6.21308 | 1233 ft | 10 kts | 330° |
| 2026-04-27 13:44 | 49.63193 | 6.21298 | 1233 ft | 6 kts | 59° |
| 2026-04-27 13:45 | 49.63207 | 6.21336 | 1233 ft | 0 kts | 60° |